Time;durP1;ratioP1;P1;durP2;ratioP2;P2;SDS_P1;SDS_P2;PMS_P1;PMS_P2;Temp;Humidity;BMP_temperature;BMP_pressure;BME280_temperature;BME280_humidity;BME280_pressure;Samples;Min_cycle;Max_cycle;Signal;HPM_P1;HPM_P2
2022/12/11 00:01:10;;;;;;;9.45;6.60;;;1.90;99.90;;;;;;5098601;28;20063;-76
2022/12/11 00:03:36;;;;;;;9.15;6.53;;;1.80;99.90;;;;;;5098402;28;20540;-76
2022/12/11 00:06:07;;;;;;;9.05;6.45;;;1.80;99.90;;;;;;5098527;28;20024;-76
2022/12/11 00:08:32;;;;;;;8.85;6.18;;;1.80;99.90;;;;;;5098169;28;20092;-76
2022/12/11 00:10:58;;;;;;;9.63;6.60;;;1.90;99.90;;;;;;5098598;28;20138;-77
2022/12/11 00:13:24;;;;;;;10.30;6.30;;;1.80;99.90;;;;;;5098459;28;20036;-76
2022/12/11 00:15:49;;;;;;;11.15;6.93;;;1.90;99.90;;;;;;5098689;28;20098;-76
2022/12/11 00:18:15;;;;;;;8.85;6.15;;;1.80;99.90;;;;;;5098400;28;20086;-76
2022/12/11 00:20:41;;;;;;;10.15;5.78;;;1.90;99.90;;;;;;5098152;28;20031;-76
2022/12/11 00:23:07;;;;;;;9.75;5.85;;;1.90;99.90;;;;;;5098067;28;20515;-76
2022/12/11 00:25:32;;;;;;;10.25;5.78;;;1.90;99.90;;;;;;5098537;28;20383;-76
2022/12/11 00:27:58;;;;;;;9.90;6.22;;;1.90;99.90;;;;;;5080117;28;20020;-76
2022/12/11 00:30:24;;;;;;;9.50;6.10;;;1.90;99.90;;;;;;5098400;28;20487;-76
2022/12/11 00:32:52;;;;;;;9.15;6.57;;;1.80;99.90;;;;;;5097959;28;20488;-76
2022/12/11 00:35:18;;;;;;;9.77;6.20;;;1.80;99.90;;;;;;5097905;28;20024;-76
2022/12/11 00:37:43;;;;;;;9.43;6.40;;;1.80;99.90;;;;;;5098360;28;20031;-76
2022/12/11 00:40:10;;;;;;;9.95;5.80;;;1.80;99.90;;;;;;5080158;28;20500;-76
2022/12/11 00:42:35;;;;;;;10.77;6.60;;;1.80;99.90;;;;;;5098031;28;20107;-77
2022/12/11 00:45:01;;;;;;;8.63;5.85;;;1.80;99.90;;;;;;5079994;28;20048;-76
2022/12/11 00:47:27;;;;;;;7.22;5.50;;;1.80;99.90;;;;;;5097639;28;20027;-76
2022/12/11 00:49:53;;;;;;;8.63;5.43;;;1.80;99.90;;;;;;5097886;28;20392;-76
2022/12/11 00:52:18;;;;;;;9.40;5.57;;;1.80;99.90;;;;;;5079445;28;20036;-76
2022/12/11 00:54:44;;;;;;;7.88;5.40;;;1.70;99.90;;;;;;5097806;28;20031;-76
2022/12/11 00:57:10;;;;;;;9.60;6.75;;;1.70;99.90;;;;;;5097614;28;20027;-77
2022/12/11 00:59:35;;;;;;;9.38;6.72;;;1.70;99.90;;;;;;5079623;28;20059;-76
2022/12/11 01:02:01;;;;;;;8.90;5.88;;;1.60;99.90;;;;;;5097395;28;20032;-76
2022/12/11 01:04:26;;;;;;;9.45;6.25;;;1.50;99.90;;;;;;5097798;28;20384;-76
2022/12/11 01:06:52;;;;;;;11.85;6.50;;;1.60;99.90;;;;;;5097403;28;20499;-76
2022/12/11 01:12:02;;;;;;;10.55;6.38;;;1.50;99.90;;;;;;5097956;28;20081;-76
2022/12/11 01:14:28;;;;;;;9.73;5.95;;;1.50;99.90;;;;;;5097385;28;20056;-76
2022/12/11 01:16:53;;;;;;;9.57;6.25;;;1.50;99.90;;;;;;5097605;28;20040;-76
2022/12/11 01:19:19;;;;;;;9.52;6.53;;;1.40;99.90;;;;;;5097118;28;20032;-76
2022/12/11 01:21:44;;;;;;;10.00;6.05;;;1.40;99.90;;;;;;5096753;28;20472;-76
2022/12/11 01:24:10;;;;;;;9.10;5.93;;;1.40;99.90;;;;;;5097328;28;20480;-76
2022/12/11 01:26:36;;;;;;;9.85;6.75;;;1.30;99.90;;;;;;5079296;28;20436;-76
2022/12/11 01:29:02;;;;;;;9.15;5.90;;;1.30;99.90;;;;;;5097259;28;20456;-76
2022/12/11 01:31:27;;;;;;;9.82;6.45;;;1.40;99.90;;;;;;5097468;28;20063;-76
2022/12/11 01:33:54;;;;;;;10.80;6.72;;;1.40;99.90;;;;;;5097097;28;20036;-76
2022/12/11 01:36:21;;;;;;;8.98;5.82;;;1.40;99.90;;;;;;5097140;28;20415;-76
2022/12/11 01:38:48;;;;;;;9.90;6.63;;;1.40;99.90;;;;;;5097140;28;20471;-76
2022/12/11 01:41:14;;;;;;;12.00;7.20;;;1.40;99.90;;;;;;5097284;28;20482;-76
2022/12/11 01:44:01;;;;;;;9.68;6.32;;;1.30;99.90;;;;;;5097284;28;20381;-76
2022/12/11 01:46:27;;;;;;;9.15;6.15;;;1.30;99.90;;;;;;5097254;28;20385;-76
2022/12/11 01:48:54;;;;;;;9.00;6.47;;;1.20;99.90;;;;;;5079237;28;20472;-76
2022/12/11 01:51:20;;;;;;;10.38;6.90;;;1.30;99.90;;;;;;5096998;28;20020;-76
2022/12/11 01:53:56;;;;;;;9.68;6.43;;;1.20;99.90;;;;;;5097112;28;20020;-76
2022/12/11 01:56:22;;;;;;;9.50;6.20;;;1.20;99.90;;;;;;5097313;28;20020;-76
2022/12/11 01:58:55;;;;;;;10.75;5.57;;;1.20;99.90;;;;;;5079033;28;20052;-76
2022/12/11 02:01:41;;;;;;;8.80;5.95;;;1.20;99.90;;;;;;5096840;28;20403;-76
2022/12/11 02:04:08;;;;;;;9.57;6.47;;;1.20;99.90;;;;;;5097110;28;20028;-76
2022/12/11 02:06:39;;;;;;;11.80;6.80;;;1.20;99.90;;;;;;5096772;28;20122;-76
2022/12/11 02:09:09;;;;;;;10.88;6.30;;;1.20;99.90;;;;;;5078846;28;20063;-76
2022/12/11 02:12:06;;;;;;;8.70;5.78;;;1.20;99.90;;;;;;5097030;28;20032;-76
2022/12/11 02:14:45;;;;;;;10.05;6.60;;;1.20;99.90;;;;;;5078745;28;20028;-75
2022/12/11 02:17:32;;;;;;;9.07;5.85;;;1.20;99.90;;;;;;5096929;28;20035;-76
2022/12/11 02:20:09;;;;;;;9.98;6.47;;;1.20;99.90;;;;;;5077953;28;20070;-76
2022/12/11 02:22:52;;;;;;;13.13;6.68;;;1.20;99.90;;;;;;5078841;28;20028;-76
2022/12/11 02:25:46;;;;;;;9.77;6.35;;;1.20;99.90;;;;;;5097029;28;20024;-76
2022/12/11 02:28:19;;;;;;;10.88;6.28;;;1.20;99.90;;;;;;5097055;28;20491;-76
2022/12/11 02:30:50;;;;;;;10.38;7.00;;;1.10;99.90;;;;;;5078896;28;20024;-76
2022/12/11 02:33:24;;;;;;;9.30;6.55;;;1.00;99.90;;;;;;5082210;28;20092;-76
2022/12/11 02:35:51;;;;;;;9.93;7.25;;;0.90;99.90;;;;;;5082295;28;20480;-76
2022/12/11 02:38:31;;;;;;;10.82;6.47;;;0.90;99.90;;;;;;5100754;28;20428;-76
2022/12/11 02:40:59;;;;;;;9.93;6.43;;;0.90;99.90;;;;;;5100100;28;20049;-76
2022/12/11 02:43:26;;;;;;;9.00;6.15;;;0.90;99.90;;;;;;5082507;28;20503;-76
2022/12/11 02:45:53;;;;;;;9.02;6.32;;;0.90;99.90;;;;;;5082281;28;20016;-76
2022/12/11 02:48:21;;;;;;;11.88;7.00;;;0.90;99.90;;;;;;5100219;28;20025;-76
2022/12/11 02:50:51;;;;;;;11.00;6.18;;;0.90;99.90;;;;;;5099894;28;20024;-76
2022/12/11 02:53:21;;;;;;;10.55;6.78;;;0.90;99.90;;;;;;5075513;28;20438;-76
2022/12/11 02:55:53;;;;;;;9.88;6.50;;;0.80;99.90;;;;;;5100534;28;20017;-76
2022/12/11 02:58:26;;;;;;;9.88;6.38;;;0.80;99.90;;;;;;5100010;28;20048;-76
2022/12/11 03:00:52;;;;;;;9.80;6.68;;;0.90;99.90;;;;;;5081646;28;20020;-76
2022/12/11 03:03:18;;;;;;;11.50;6.00;;;0.90;99.90;;;;;;5099708;28;20035;-76
2022/12/11 03:05:45;;;;;;;9.32;6.70;;;0.90;99.90;;;;;;5099951;28;20435;-76
2022/12/11 03:08:11;;;;;;;9.15;5.85;;;1.00;99.90;;;;;;5081862;28;20028;-76
2022/12/11 03:10:37;;;;;;;8.90;5.25;;;1.10;99.90;;;;;;5100030;28;20028;-75
2022/12/11 03:13:03;;;;;;;9.40;6.25;;;1.10;99.90;;;;;;5081613;28;20496;-75
2022/12/11 03:15:58;;;;;;;10.05;6.03;;;1.20;99.90;;;;;;5099964;28;20400;-75
2022/12/11 03:18:37;;;;;;;9.95;5.68;;;1.20;99.90;;;;;;5070227;28;20040;-76
2022/12/11 03:21:20;;;;;;;9.57;5.78;;;1.20;99.90;;;;;;5099449;28;20039;-75
2022/12/11 03:24:04;;;;;;;9.30;5.53;;;1.20;99.90;;;;;;5099763;28;20020;-76
2022/12/11 03:26:36;;;;;;;8.57;5.63;;;1.20;99.90;;;;;;5099409;28;20031;-76
2022/12/11 03:29:11;;;;;;;9.10;6.30;;;1.20;99.90;;;;;;5099536;28;20020;-76
2022/12/11 03:31:42;;;;;;;8.35;5.50;;;1.20;99.90;;;;;;5099380;28;20024;-76
2022/12/11 03:34:20;;;;;;;9.85;5.60;;;1.20;99.90;;;;;;5099328;28;20483;-76
2022/12/11 03:36:47;;;;;;;7.80;5.57;;;1.20;99.90;;;;;;5099221;28;20084;-76
2022/12/11 03:39:20;;;;;;;9.77;5.68;;;1.20;99.90;;;;;;5099221;28;20029;-76
2022/12/11 03:41:49;;;;;;;9.20;5.75;;;1.20;99.90;;;;;;5099196;28;20384;-76
2022/12/11 03:44:15;;;;;;;10.02;6.82;;;1.20;99.90;;;;;;5098278;28;20103;-76
2022/12/11 03:46:44;;;;;;;8.48;5.50;;;1.20;99.90;;;;;;5080933;28;20503;-76
2022/12/11 03:49:26;;;;;;;9.95;4.85;;;1.20;99.90;;;;;;5099329;28;20032;-76
2022/12/11 03:51:55;;;;;;;9.75;5.45;;;1.20;99.90;;;;;;5098586;28;20396;-76
2022/12/11 03:54:22;;;;;;;6.90;5.10;;;1.20;99.90;;;;;;5099168;28;20125;-75
2022/12/11 03:56:49;;;;;;;7.75;4.60;;;1.20;99.90;;;;;;5098348;28;20060;-76
2022/12/11 03:59:15;;;;;;;7.55;4.78;;;1.30;99.90;;;;;;5097796;28;20058;-76
2022/12/11 04:01:41;;;;;;;8.13;5.32;;;1.30;99.90;;;;;;5098222;28;20407;-76
2022/12/11 04:04:06;;;;;;;8.50;5.60;;;1.30;99.90;;;;;;5099115;28;20036;-76
2022/12/11 04:06:32;;;;;;;9.77;6.30;;;1.30;99.90;;;;;;5098495;28;20095;-76
2022/12/11 04:08:58;;;;;;;7.97;5.18;;;1.30;99.90;;;;;;5098938;28;20027;-76
2022/12/11 04:11:35;;;;;;;9.52;5.65;;;1.30;99.90;;;;;;5098773;28;20169;-77
2022/12/11 04:16:52;;;;;;;7.72;5.45;;;1.20;99.90;;;;;;5098770;28;20073;-76
2022/12/11 04:24:59;;;;;;;7.32;4.97;;;1.20;99.90;;;;;;5013802;28;20037;-76
2022/12/11 04:30:19;;;;;;;7.45;4.80;;;1.20;99.90;;;;;;5098585;28;20039;-76
2022/12/11 04:32:44;;;;;;;7.57;4.88;;;1.20;99.90;;;;;;5079918;28;20070;-77
2022/12/11 04:35:11;;;;;;;8.13;4.57;;;1.20;99.90;;;;;;5098138;28;20028;-77
2022/12/11 04:37:37;;;;;;;8.60;4.78;;;1.30;99.90;;;;;;5080024;28;20474;-76
2022/12/11 04:40:05;;;;;;;8.70;5.15;;;1.30;99.90;;;;;;5079962;28;20475;-76
2022/12/11 04:42:30;;;;;;;7.22;4.68;;;1.30;99.90;;;;;;5097948;28;20020;-76
2022/12/11 04:44:56;;;;;;;9.13;4.82;;;1.20;99.90;;;;;;5098166;28;20082;-76
2022/12/11 04:47:22;;;;;;;6.95;4.15;;;1.30;99.90;;;;;;5097739;28;20073;-76
2022/12/11 04:49:47;;;;;;;7.45;4.95;;;1.30;99.90;;;;;;5098009;28;20097;-76
2022/12/11 04:52:13;;;;;;;9.40;5.07;;;1.20;99.90;;;;;;5097819;28;20023;-77
2022/12/11 04:54:39;;;;;;;7.88;4.97;;;1.20;99.90;;;;;;5097185;28;20583;-76
2022/12/11 04:57:04;;;;;;;7.50;4.35;;;1.20;99.90;;;;;;5097898;28;20154;-76
2022/12/11 04:59:31;;;;;;;7.72;4.32;;;1.20;99.90;;;;;;5079476;28;20040;-76
2022/12/11 05:01:57;;;;;;;7.72;4.93;;;1.20;99.90;;;;;;5097446;28;20605;-76
2022/12/11 05:04:23;;;;;;;6.70;3.72;;;1.20;99.90;;;;;;5079592;28;20020;-76
2022/12/11 05:06:49;;;;;;;7.35;4.72;;;1.10;99.90;;;;;;5097461;28;20012;-76
2022/12/11 05:09:15;;;;;;;5.80;3.97;;;1.10;99.90;;;;;;5079454;28;20027;-76
2022/12/11 05:11:44;;;;;;;6.32;4.07;;;1.00;99.90;;;;;;5097534;28;20099;-76
2022/12/11 05:14:09;;;;;;;6.38;4.20;;;1.10;99.90;;;;;;5079510;28;20028;-76
2022/12/11 05:16:35;;;;;;;6.47;3.75;;;1.10;99.90;;;;;;5097384;28;20067;-76
2022/12/11 05:19:00;;;;;;;7.20;4.45;;;1.10;99.90;;;;;;5097644;28;20116;-76
2022/12/11 05:21:26;;;;;;;6.40;3.95;;;1.10;99.90;;;;;;5097182;28;20031;-76
2022/12/11 05:23:52;;;;;;;6.15;3.78;;;1.10;99.90;;;;;;5097582;28;20035;-76
2022/12/11 05:26:19;;;;;;;5.47;3.65;;;1.10;99.90;;;;;;5097124;28;20028;-76
2022/12/11 05:28:49;;;;;;;6.13;3.78;;;1.10;99.90;;;;;;5097514;28;20016;-76
2022/12/11 05:31:18;;;;;;;6.40;3.58;;;1.20;99.90;;;;;;5097118;28;20020;-76
2022/12/11 05:33:45;;;;;;;7.18;3.75;;;1.20;99.90;;;;;;5097269;28;20073;-77
2022/12/11 05:36:25;;;;;;;5.65;3.50;;;1.20;99.90;;;;;;5078772;28;20032;-76
2022/12/11 05:38:51;;;;;;;6.72;4.13;;;1.20;99.90;;;;;;5097191;28;20365;-76
2022/12/11 05:41:20;;;;;;;4.65;2.95;;;1.20;99.90;;;;;;5097298;28;20051;-76
2022/12/11 05:43:46;;;;;;;5.30;3.45;;;1.20;99.90;;;;;;5078008;28;20396;-76
2022/12/11 05:46:17;;;;;;;6.10;3.53;;;1.20;99.90;;;;;;5079498;28;20018;-76
2022/12/11 05:48:45;;;;;;;6.03;3.55;;;1.20;99.90;;;;;;5097237;28;20062;-76
2022/12/11 05:51:11;;;;;;;6.88;4.00;;;1.30;99.90;;;;;;5097037;28;20099;-76
2022/12/11 05:53:39;;;;;;;7.53;4.22;;;1.30;99.90;;;;;;5078980;28;20040;-76
2022/12/11 05:56:26;;;;;;;6.97;4.20;;;1.30;99.90;;;;;;5097270;28;20055;-76
2022/12/11 05:58:52;;;;;;;5.55;3.30;;;1.30;99.90;;;;;;5079323;28;20454;-77
2022/12/11 06:01:24;;;;;;;5.55;3.40;;;1.40;99.90;;;;;;5078997;28;20112;-76
2022/12/11 06:03:50;;;;;;;5.25;3.55;;;1.40;99.90;;;;;;5084184;28;20012;-76
2022/12/11 06:06:16;;;;;;;5.18;3.30;;;1.50;99.90;;;;;;5097676;28;20402;-76
2022/12/11 06:08:42;;;;;;;4.85;3.30;;;1.50;99.90;;;;;;5101249;28;20051;-76
2022/12/11 06:11:08;;;;;;;6.28;3.33;;;1.50;99.90;;;;;;5101264;28;20026;-76
2022/12/11 06:13:34;;;;;;;6.50;3.72;;;1.50;99.90;;;;;;5101108;28;20020;-76
2022/12/11 06:16:02;;;;;;;6.63;4.18;;;1.60;99.90;;;;;;5101015;28;20024;-76
2022/12/11 06:18:27;;;;;;;6.60;4.18;;;1.50;99.90;;;;;;5082612;28;20040;-76
2022/12/11 06:20:53;;;;;;;6.30;3.97;;;1.50;99.90;;;;;;5100702;28;20023;-76
2022/12/11 06:23:19;;;;;;;6.53;3.50;;;1.40;99.90;;;;;;5101131;28;20044;-76
2022/12/11 06:25:44;;;;;;;5.35;3.50;;;1.50;99.90;;;;;;5100876;28;20063;-76
2022/12/11 06:28:10;;;;;;;7.07;4.32;;;1.50;99.90;;;;;;5100787;28;20388;-76
2022/12/11 06:30:36;;;;;;;7.70;4.45;;;1.40;99.90;;;;;;5082444;28;20560;-76
2022/12/11 06:33:01;;;;;;;6.80;4.07;;;1.40;99.90;;;;;;5100587;28;20024;-76
2022/12/11 06:35:27;;;;;;;6.97;3.80;;;1.40;99.90;;;;;;5082081;28;20051;-76
2022/12/11 06:37:53;;;;;;;7.43;4.65;;;1.40;99.90;;;;;;5100596;28;20403;-76
2022/12/11 06:40:18;;;;;;;7.57;4.18;;;1.40;99.90;;;;;;5100607;28;20500;-75
2022/12/11 06:42:44;;;;;;;7.28;4.28;;;1.40;99.90;;;;;;5082112;28;20036;-76
2022/12/11 06:45:10;;;;;;;7.38;3.90;;;1.50;99.90;;;;;;5082411;28;20492;-76
2022/12/11 06:47:36;;;;;;;7.50;4.40;;;1.50;99.90;;;;;;5100485;28;20028;-76
2022/12/11 06:50:02;;;;;;;6.47;3.60;;;1.50;99.90;;;;;;5081791;28;20016;-76
2022/12/11 06:52:28;;;;;;;6.63;3.92;;;1.50;99.90;;;;;;5082184;28;20024;-76
2022/12/11 06:54:54;;;;;;;7.18;4.30;;;1.50;99.90;;;;;;5100255;28;20388;-76
2022/12/11 06:57:20;;;;;;;5.78;3.75;;;1.50;99.90;;;;;;5100127;28;20503;-76
2022/12/11 06:59:46;;;;;;;6.22;4.03;;;1.60;99.90;;;;;;5081955;28;20051;-75
2022/12/11 07:02:16;;;;;;;5.50;3.80;;;1.60;99.90;;;;;;5099957;28;20392;-76
2022/12/11 07:04:43;;;;;;;7.32;4.18;;;1.60;99.90;;;;;;5099602;28;20057;-76
2022/12/11 07:07:09;;;;;;;6.53;4.20;;;1.60;99.90;;;;;;5100130;28;20052;-76
2022/12/11 07:09:37;;;;;;;8.75;4.93;;;1.60;99.90;;;;;;5099836;28;20495;-76
2022/12/11 07:12:03;;;;;;;8.35;4.43;;;1.60;99.90;;;;;;5099946;28;20107;-76
2022/12/11 07:14:30;;;;;;;7.50;4.18;;;1.60;99.90;;;;;;5099805;28;20183;-76
2022/12/11 07:16:56;;;;;;;8.32;4.80;;;1.60;99.90;;;;;;5081925;28;20024;-75
2022/12/11 07:19:23;;;;;;;7.07;3.97;;;1.50;99.90;;;;;;5098623;28;20020;-76
2022/12/11 07:21:48;;;;;;;7.43;4.25;;;1.50;99.90;;;;;;5081271;28;20433;-74
2022/12/11 07:24:14;;;;;;;7.00;4.03;;;1.50;99.90;;;;;;5099546;28;20107;-75
2022/12/11 07:26:40;;;;;;;7.63;4.53;;;1.50;99.90;;;;;;5099789;28;20016;-76
2022/12/11 07:29:05;;;;;;;9.38;5.15;;;1.50;99.90;;;;;;5081148;28;20020;-76
2022/12/11 07:31:31;;;;;;;7.43;4.47;;;1.50;99.90;;;;;;5101352;28;20020;-76
2022/12/11 07:33:59;;;;;;;8.27;4.90;;;1.50;99.90;;;;;;5086883;28;20055;-76
2022/12/11 07:36:26;;;;;;;7.80;4.30;;;1.50;99.90;;;;;;5098703;28;20103;-76
2022/12/11 07:38:52;;;;;;;7.18;4.13;;;1.50;99.90;;;;;;5099304;28;20567;-76
2022/12/11 07:41:18;;;;;;;7.50;4.53;;;1.50;99.90;;;;;;5099444;28;20078;-76
2022/12/11 07:43:44;;;;;;;6.43;4.53;;;1.50;99.90;;;;;;5099145;28;20016;-76
2022/12/11 07:46:15;;;;;;;8.52;4.40;;;1.50;99.90;;;;;;5081149;28;20024;-76
2022/12/11 07:48:48;;;;;;;7.20;3.78;;;1.60;99.90;;;;;;5099159;28;20099;-76
2022/12/11 07:51:14;;;;;;;;;;;1.70;99.90;;;;;;5099433;28;20549;-77
2022/12/11 07:53:40;;;;;;;6.85;3.83;;;1.60;99.90;;;;;;5099318;28;20017;-77
2022/12/11 07:56:07;;;;;;;6.45;4.05;;;1.60;99.90;;;;;;5099082;28;20024;-77
2022/12/11 07:58:33;;;;;;;7.13;4.82;;;1.60;99.90;;;;;;5080957;28;20040;-77
2022/12/11 08:00:58;;;;;;;9.75;5.10;;;1.50;99.90;;;;;;5098886;28;20020;-77
2022/12/11 08:03:24;;;;;;;7.47;4.68;;;1.50;99.90;;;;;;5098766;28;20054;-77
2022/12/11 08:05:51;;;;;;;8.30;4.53;;;1.60;99.90;;;;;;5098722;28;20038;-78
2022/12/11 08:08:18;;;;;;;7.75;4.28;;;1.50;99.90;;;;;;5098627;28;20020;-77
2022/12/11 08:10:44;;;;;;;7.97;4.25;;;1.60;99.90;;;;;;5080883;28;20077;-77
2022/12/11 08:13:10;;;;;;;8.48;4.97;;;1.60;99.90;;;;;;5098533;28;20031;-77
2022/12/11 08:15:36;;;;;;;8.63;4.68;;;1.70;99.90;;;;;;5098634;28;20896;-80
2022/12/11 08:18:02;;;;;;;8.40;4.80;;;1.70;99.90;;;;;;5098425;28;20450;-77
2022/12/11 08:20:29;;;;;;;7.50;4.28;;;1.70;99.90;;;;;;5098385;28;20031;-76
2022/12/11 08:22:55;;;;;;;9.45;5.25;;;1.70;99.90;;;;;;5080456;28;20039;-76
2022/12/11 08:25:21;;;;;;;10.20;5.78;;;1.80;99.90;;;;;;5098332;28;20028;-76
2022/12/11 08:27:47;;;;;;;9.27;5.28;;;1.80;99.90;;;;;;5098333;28;20056;-76
2022/12/11 08:30:13;;;;;;;10.32;5.35;;;1.70;99.90;;;;;;5079953;28;20495;-77
2022/12/11 08:32:38;;;;;;;9.77;5.40;;;1.70;99.90;;;;;;5079866;28;20399;-78
2022/12/11 08:35:04;;;;;;;7.85;4.53;;;1.70;99.90;;;;;;5098369;28;20031;-76
2022/12/11 08:37:30;;;;;;;6.88;4.50;;;1.70;99.90;;;;;;5098245;28;20522;-76
2022/12/11 08:39:56;;;;;;;11.20;6.43;;;1.80;99.90;;;;;;5080012;28;20032;-76
2022/12/11 08:42:21;;;;;;;9.60;5.53;;;1.70;99.90;;;;;;5079781;28;20031;-76
2022/12/11 08:44:47;;;;;;;10.32;6.57;;;1.70;99.90;;;;;;5079925;28;20016;-75
2022/12/11 08:47:14;;;;;;;8.65;5.13;;;1.70;99.90;;;;;;5097733;28;20102;-76
2022/12/11 08:49:39;;;;;;;9.52;5.57;;;1.70;99.90;;;;;;5079889;28;20069;-76
2022/12/11 08:52:05;;;;;;;8.38;5.18;;;1.60;99.90;;;;;;5097843;28;20020;-76
2022/12/11 08:54:31;;;;;;;11.13;6.30;;;1.60;99.90;;;;;;5098138;28;20020;-76
2022/12/11 08:56:57;;;;;;;9.25;5.30;;;1.60;99.90;;;;;;5097753;28;20028;-76
2022/12/11 08:59:24;;;;;;;9.43;5.25;;;1.60;99.90;;;;;;5097861;28;20048;-76
2022/12/11 09:01:50;;;;;;;7.93;4.70;;;1.60;99.90;;;;;;5097455;28;20028;-76
2022/12/11 09:04:16;;;;;;;10.82;5.40;;;1.70;99.90;;;;;;5097853;28;20016;-76
2022/12/11 09:06:41;;;;;;;8.75;4.95;;;1.70;99.90;;;;;;5097456;28;20361;-77
2022/12/11 09:09:07;;;;;;;8.85;4.97;;;1.70;99.90;;;;;;5079667;28;20391;-75
2022/12/11 09:11:36;;;;;;;8.43;4.65;;;1.80;99.90;;;;;;5097514;28;20031;-75
2022/12/11 09:14:02;;;;;;;8.55;4.85;;;1.80;99.90;;;;;;5097825;28;20476;-76
2022/12/11 09:16:28;;;;;;;8.80;5.00;;;1.90;99.90;;;;;;5097401;28;20028;-75
2022/12/11 09:18:56;;;;;;;9.05;5.65;;;2.00;99.90;;;;;;5097862;28;20080;-75
2022/12/11 09:21:24;;;;;;;10.00;5.75;;;2.00;99.90;;;;;;5079023;28;20052;-75
2022/12/11 09:23:56;;;;;;;9.52;5.55;;;2.10;99.90;;;;;;5097604;28;20013;-77
2022/12/11 09:26:22;;;;;;;9.15;5.03;;;2.10;99.90;;;;;;5079456;28;20024;-79
2022/12/11 09:28:50;;;;;;;10.05;5.88;;;2.00;99.90;;;;;;5079541;28;20484;-75
2022/12/11 09:31:24;;;;;;;9.05;5.00;;;2.00;99.90;;;;;;5097132;28;20480;-77
2022/12/11 09:33:53;;;;;;;9.75;4.78;;;1.90;99.90;;;;;;5079217;28;20023;-76
2022/12/11 09:36:19;;;;;;;10.18;5.43;;;1.90;99.90;;;;;;5097071;28;20507;-79
2022/12/11 09:38:45;;;;;;;9.93;6.03;;;2.00;99.90;;;;;;5079296;28;20024;-75
2022/12/11 09:41:19;;;;;;;8.35;5.18;;;2.00;99.90;;;;;;5080079;28;20423;-78
2022/12/11 09:43:49;;;;;;;8.95;5.55;;;2.00;99.90;;;;;;5083474;28;20048;-77
2022/12/11 09:46:17;;;;;;;10.63;5.85;;;2.00;99.90;;;;;;5101498;28;20020;-77
2022/12/11 09:48:48;;;;;;;8.93;5.85;;;2.00;99.90;;;;;;5117404;28;20411;-77
2022/12/11 09:51:34;;;;;;;9.27;5.70;;;2.10;99.90;;;;;;5101482;28;20028;-69
2022/12/11 09:54:02;;;;;;;8.30;5.15;;;2.00;99.90;;;;;;5101321;28;20070;-74
2022/12/11 09:56:35;;;;;;;9.20;5.47;;;2.10;99.90;;;;;;5083117;28;20051;-73
2022/12/11 09:59:25;;;;;;;7.55;4.28;;;2.30;99.90;;;;;;5101402;28;20059;-74
2022/12/11 10:02:24;;;;;;;9.32;4.97;;;2.30;99.90;;;;;;5100912;28;20075;-73
2022/12/11 10:05:18;;;;;;;8.52;4.47;;;2.50;99.90;;;;;;5101119;28;20458;-73
2022/12/11 10:07:53;;;;;;;9.10;5.00;;;2.50;99.90;;;;;;5100734;28;20392;-70
2022/12/11 10:10:39;;;;;;;9.57;5.40;;;2.40;99.90;;;;;;5088803;28;20024;-70
2022/12/11 10:13:33;;;;;;;10.32;5.50;;;2.40;99.90;;;;;;5082846;28;20074;-72
2022/12/11 10:16:02;;;;;;;11.65;6.38;;;2.40;99.90;;;;;;5082645;28;20050;-70
2022/12/11 10:18:30;;;;;;;9.57;5.22;;;2.30;99.90;;;;;;5100755;28;20434;-71
2022/12/11 10:20:59;;;;;;;9.68;5.97;;;2.30;99.90;;;;;;5100553;28;20020;-71
2022/12/11 10:23:44;;;;;;;8.70;5.32;;;2.40;99.90;;;;;;5101005;28;20078;-71
2022/12/11 10:26:16;;;;;;;8.27;4.78;;;2.40;99.90;;;;;;5100708;28;20473;-71
2022/12/11 10:28:42;;;;;;;7.35;4.40;;;2.40;99.90;;;;;;5100875;28;20034;-76
2022/12/11 10:31:30;;;;;;;7.20;5.22;;;2.40;99.90;;;;;;5101051;28;20118;-78
2022/12/11 10:34:19;;;;;;;7.78;4.47;;;2.50;99.90;;;;;;5082005;28;20024;-73
2022/12/11 10:36:45;;;;;;;6.82;4.00;;;2.60;99.90;;;;;;5100526;28;20372;-71
2022/12/11 10:39:16;;;;;;;8.15;4.75;;;2.70;99.90;;;;;;5100307;28;20024;-73
2022/12/11 10:41:44;;;;;;;7.43;4.45;;;2.80;99.90;;;;;;5100351;28;20039;-74
2022/12/11 10:44:28;;;;;;;9.63;5.38;;;2.90;99.90;;;;;;5100389;28;20023;-74
2022/12/11 10:47:03;;;;;;;8.32;4.65;;;2.90;99.90;;;;;;5100300;28;20024;-74
2022/12/11 10:49:32;;;;;;;7.85;4.88;;;3.00;99.90;;;;;;5100282;28;20468;-73
2022/12/11 10:52:00;;;;;;;6.50;4.57;;;3.10;99.90;;;;;;5100235;28;20131;-76
2022/12/11 10:54:38;;;;;;;8.52;5.20;;;3.10;99.90;;;;;;5100258;28;20016;-81
2022/12/11 10:57:05;;;;;;;10.48;5.40;;;3.10;99.90;;;;;;5081932;28;20387;-76
2022/12/11 10:59:40;;;;;;;7.85;4.82;;;3.10;99.90;;;;;;5081914;28;20048;-78
2022/12/11 11:02:26;;;;;;;8.85;5.03;;;3.20;99.90;;;;;;5085173;28;20050;-76
2022/12/11 11:04:54;;;;;;;8.05;5.30;;;3.30;99.90;;;;;;5081459;28;20496;-79
2022/12/11 11:07:25;;;;;;;9.30;6.18;;;3.30;99.90;;;;;;5090716;28;20436;-77
2022/12/11 11:10:09;;;;;;;8.85;5.50;;;3.30;99.90;;;;;;5101637;28;20028;-75
2022/12/11 11:12:44;;;;;;;7.90;5.22;;;3.30;99.90;;;;;;5090180;28;20032;-76
2022/12/11 11:15:26;;;;;;;8.93;5.25;;;3.40;99.90;;;;;;5086482;28;20084;-80
2022/12/11 11:17:54;;;;;;;8.20;5.15;;;3.40;99.90;;;;;;5091213;28;20027;-75
2022/12/11 11:20:25;;;;;;;9.35;5.95;;;3.50;99.90;;;;;;5106379;28;20110;-69
2022/12/11 11:23:10;;;;;;;8.77;6.05;;;3.40;99.90;;;;;;5085083;28;20369;-70
2022/12/11 11:25:35;;;;;;;8.50;5.35;;;3.40;99.90;;;;;;5101922;28;20102;-81
2022/12/11 11:28:04;;;;;;;8.23;5.47;;;3.40;99.90;;;;;;5099318;28;20156;-77
2022/12/11 11:30:38;;;;;;;9.45;5.20;;;3.40;99.90;;;;;;5082398;28;20032;-80
2022/12/11 11:33:17;;;;;;;8.70;5.80;;;3.40;99.90;;;;;;5083803;28;20360;-81
2022/12/11 11:35:53;;;;;;;8.30;5.45;;;3.40;99.90;;;;;;5092306;28;20028;-79
2022/12/11 11:38:23;;;;;;;7.60;4.85;;;3.40;99.90;;;;;;5101062;28;20025;-81
2022/12/11 11:41:11;;;;;;;9.23;5.05;;;3.40;99.90;;;;;;5099237;28;20038;-77
2022/12/11 11:43:46;;;;;;;9.45;5.40;;;3.50;99.90;;;;;;5081723;28;20036;-78
2022/12/11 11:46:17;;;;;;;9.70;5.25;;;3.40;99.90;;;;;;5093870;28;20027;-77
2022/12/11 11:48:52;;;;;;;8.02;5.72;;;3.40;99.90;;;;;;5106448;28;20020;-79
2022/12/11 11:51:34;;;;;;;9.93;5.95;;;3.40;99.90;;;;;;5101831;28;20036;-80
2022/12/11 11:54:10;;;;;;;8.15;5.10;;;3.40;99.90;;;;;;5081080;28;20062;-75
2022/12/11 11:56:36;;;;;;;11.23;5.70;;;3.40;99.90;;;;;;5081453;28;20177;-75
2022/12/11 11:59:22;;;;;;;10.45;6.38;;;3.50;99.90;;;;;;5107543;28;20127;-73
2022/12/11 12:01:50;;;;;;;9.80;5.88;;;3.50;99.90;;;;;;5099269;28;20016;-75
2022/12/11 12:04:16;;;;;;;8.52;5.40;;;3.50;99.90;;;;;;5102657;28;20036;-76
2022/12/11 12:07:09;;;;;;;9.15;5.88;;;3.60;99.90;;;;;;5100628;28;20028;-74
2022/12/11 12:09:44;;;;;;;9.70;5.72;;;3.70;99.90;;;;;;5097632;28;20096;-74
2022/12/11 12:12:38;;;;;;;8.43;5.18;;;3.70;99.90;;;;;;5103959;28;20088;-75
2022/12/11 12:15:17;;;;;;;8.10;5.57;;;3.80;99.90;;;;;;5101219;28;20088;-75
2022/12/11 12:18:01;;;;;;;9.73;5.53;;;3.80;99.90;;;;;;5107259;28;20079;-73
2022/12/11 12:20:48;;;;;;;9.45;5.80;;;3.90;99.90;;;;;;5104702;28;20028;-75
2022/12/11 12:23:38;;;;;;;7.15;4.90;;;3.90;99.90;;;;;;5102665;28;20036;-76
2022/12/11 12:26:22;;;;;;;7.88;5.28;;;4.00;99.90;;;;;;5084987;28;20024;-75
2022/12/11 12:29:13;;;;;;;8.35;5.05;;;4.00;99.90;;;;;;5096344;28;20099;-76
2022/12/11 12:32:03;;;;;;;7.88;5.45;;;4.00;99.90;;;;;;5098118;28;20030;-75
2022/12/11 12:34:53;;;;;;;8.65;5.40;;;4.00;99.90;;;;;;5086673;28;20027;-72
2022/12/11 12:37:24;;;;;;;8.27;5.05;;;4.00;99.90;;;;;;5102603;28;20063;-72
2022/12/11 12:40:07;;;;;;;8.13;5.00;;;4.00;99.90;;;;;;5099566;28;20024;-72
2022/12/11 12:43:05;;;;;;;8.93;4.95;;;4.00;99.90;;;;;;5082436;28;20038;-73
2022/12/11 12:45:45;;;;;;;8.10;4.90;;;4.10;99.90;;;;;;5080742;28;20020;-73
2022/12/11 12:48:11;;;;;;;8.02;4.90;;;4.10;99.90;;;;;;5113162;28;20024;-72
2022/12/11 12:50:41;;;;;;;8.35;5.15;;;4.10;99.90;;;;;;5104213;28;20103;-73
2022/12/11 12:53:14;;;;;;;8.18;5.35;;;4.10;99.90;;;;;;5099827;28;20107;-73
2022/12/11 12:55:41;;;;;;;8.40;5.13;;;4.10;99.90;;;;;;5109025;28;20056;-73
2022/12/11 12:58:23;;;;;;;7.60;5.30;;;4.10;99.90;;;;;;5085420;28;20031;-73
2022/12/11 13:00:48;;;;;;;7.65;4.57;;;4.10;99.90;;;;;;5095553;28;20102;-73
2022/12/11 13:03:20;;;;;;;7.20;4.70;;;4.20;99.90;;;;;;5101235;28;20035;-73
2022/12/11 13:06:02;;;;;;;7.32;4.40;;;4.20;99.90;;;;;;5090288;28;20470;-74
2022/12/11 13:08:33;;;;;;;8.35;4.68;;;4.20;99.90;;;;;;5099272;28;20023;-73
2022/12/11 13:11:08;;;;;;;8.02;4.82;;;4.30;99.90;;;;;;5110464;27;20111;-73
2022/12/11 13:13:38;;;;;;;8.45;4.95;;;4.30;99.90;;;;;;5078062;28;20641;-73
2022/12/11 13:16:15;;;;;;;6.57;4.47;;;4.30;99.90;;;;;;5095628;28;20507;-72
2022/12/11 13:18:43;;;;;;;7.68;4.25;;;4.30;99.90;;;;;;5110107;28;20476;-72
2022/12/11 13:21:29;;;;;;;7.20;4.37;;;4.40;99.90;;;;;;5097407;28;20073;-72
2022/12/11 13:24:11;;;;;;;6.65;3.97;;;4.30;99.90;;;;;;5079926;28;20333;-74
2022/12/11 13:26:38;;;;;;;5.85;4.00;;;4.30;99.90;;;;;;5097942;28;20023;-73